createdAt,value
2019-06-27T00:05:00.145Z,26.80
2019-06-27T00:10:06.727Z,26.83
2019-06-27T00:15:12.257Z,26.51
2019-06-27T00:20:18.550Z,26.53
2019-06-27T00:25:23.738Z,26.33
2019-06-27T00:30:29.068Z,26.15
2019-06-27T00:35:34.204Z,26.49
2019-06-27T00:40:39.683Z,26.31
2019-06-27T00:45:44.956Z,26.13
2019-06-27T00:50:50.193Z,26.00
2019-06-27T00:55:55.402Z,25.90
2019-06-27T01:01:00.764Z,25.29
2019-06-27T01:06:05.960Z,25.31
2019-06-27T01:11:11.183Z,25.27
2019-06-27T01:16:16.291Z,25.02
2019-06-27T01:21:21.549Z,24.99
2019-06-27T01:26:26.732Z,24.94
2019-06-27T01:31:33.050Z,24.79
2019-06-27T01:36:38.312Z,24.55
2019-06-27T01:41:43.947Z,24.39
2019-06-27T01:46:49.092Z,24.32
2019-06-27T01:51:54.458Z,24.10
2019-06-27T01:56:59.595Z,23.82
2019-06-27T02:02:05.294Z,23.81
2019-06-27T02:07:10.612Z,23.50
2019-06-27T02:12:18.361Z,23.65
2019-06-27T02:17:23.497Z,23.16
2019-06-27T02:22:28.749Z,23.13
2019-06-27T02:27:34.102Z,22.97
2019-06-27T02:32:40.626Z,22.88
2019-06-27T02:37:45.833Z,22.76
2019-06-27T02:42:52.287Z,22.72
2019-06-27T02:47:57.479Z,22.29
2019-06-27T02:53:02.883Z,22.43
2019-06-27T02:58:28.837Z,22.16
2019-06-27T03:03:18.388Z,21.83
2019-06-27T03:08:23.630Z,21.96
2019-06-27T03:13:29.752Z,21.89
2019-06-27T03:18:34.883Z,21.73
2019-06-27T03:23:40.266Z,21.91
2019-06-27T03:28:53.317Z,21.52
2019-06-27T03:33:53.947Z,21.47
2019-06-27T03:38:59.121Z,21.59
2019-06-27T03:44:04.734Z,21.56
2019-06-27T03:49:10.072Z,21.53
2019-06-27T03:54:15.283Z,21.63
2019-06-27T03:59:20.475Z,21.29
2019-06-27T04:04:25.688Z,21.67
2019-06-27T04:09:31.033Z,21.34
2019-06-27T04:14:36.272Z,21.09
2019-06-27T04:19:41.408Z,21.38
2019-06-27T04:24:46.659Z,21.53
2019-06-27T04:29:51.877Z,20.74
2019-06-27T04:34:57.036Z,20.66
2019-06-27T04:40:02.218Z,20.84
2019-06-27T04:45:07.755Z,20.73
2019-06-27T04:50:13.199Z,20.99
2019-06-27T04:55:18.526Z,21.33
2019-06-27T05:00:29.809Z,20.80
2019-06-27T05:05:36.943Z,21.47
2019-06-27T05:10:42.984Z,21.60
2019-06-27T05:15:48.260Z,21.38
2019-06-27T05:20:53.579Z,21.80
2019-06-27T05:26:00.882Z,21.45
2019-06-27T05:31:06.000Z,21.81
2019-06-27T05:36:11.369Z,22.40
2019-06-27T05:41:16.654Z,22.02
2019-06-27T05:46:22.300Z,22.10
2019-06-27T05:51:27.607Z,22.65
2019-06-27T05:56:34.352Z,23.09
2019-06-27T06:01:39.558Z,23.16
2019-06-27T06:06:44.885Z,22.95
2019-06-27T06:11:50.193Z,23.63
2019-06-27T06:16:55.497Z,24.02
2019-06-27T06:22:00.615Z,24.30
2019-06-27T06:27:05.899Z,25.92
2019-06-27T06:32:11.888Z,24.99
2019-06-27T06:37:17.203Z,26.36
2019-06-27T06:42:23.214Z,27.96
2019-06-27T06:47:28.823Z,26.22
2019-06-27T06:52:34.161Z,27.01
2019-06-27T06:57:40.493Z,23.74
2019-06-27T07:02:45.822Z,25.53
2019-06-27T07:07:53.968Z,26.60
2019-06-27T07:12:59.154Z,24.51
2019-06-27T07:18:04.404Z,26.15
2019-06-27T07:23:09.535Z,25.48
2019-06-27T07:28:14.782Z,25.86
2019-06-27T07:33:20.024Z,27.03
2019-06-27T07:38:25.304Z,24.13
2019-06-27T07:43:31.552Z,25.45
2019-06-27T07:48:37.267Z,24.84
2019-06-27T07:53:42.590Z,23.83
2019-06-27T07:58:47.791Z,25.55
2019-06-27T08:03:53.388Z,24.55
2019-06-27T08:08:58.601Z,24.07
2019-06-27T08:14:04.912Z,24.52
2019-06-27T08:19:10.187Z,24.80
2019-06-27T08:24:15.365Z,24.36
2019-06-27T08:29:23.912Z,24.64
2019-06-27T08:34:29.083Z,24.36
2019-06-27T08:39:36.593Z,24.30
2019-06-27T08:44:41.686Z,24.30
2019-06-27T08:49:46.917Z,24.43
2019-06-27T08:54:52.346Z,24.32
2019-06-27T09:00:00.856Z,25.61
2019-06-27T09:05:06.341Z,25.81
2019-06-27T09:10:13.289Z,24.98
2019-06-27T09:15:19.144Z,25.51
2019-06-27T09:20:24.660Z,25.56
2019-06-27T09:25:29.811Z,25.40
2019-06-27T09:30:35.022Z,25.35
2019-06-27T09:35:40.197Z,25.62
2019-06-27T09:40:45.448Z,25.91
2019-06-27T09:45:50.611Z,25.94
2019-06-27T09:50:55.940Z,26.70
2019-06-27T09:56:01.187Z,26.08
2019-06-27T10:01:06.956Z,26.39
2019-06-27T10:06:12.428Z,26.07
2019-06-27T10:11:17.818Z,26.72
2019-06-27T10:16:23.207Z,26.42
2019-06-27T10:21:28.474Z,26.09
2019-06-27T10:26:33.645Z,27.12
2019-06-27T10:31:40.101Z,26.66
2019-06-27T10:36:46.178Z,26.75
2019-06-27T10:41:51.423Z,26.48
2019-06-27T10:46:56.592Z,26.87
2019-06-27T10:52:03.482Z,26.74
2019-06-27T10:57:08.948Z,26.39
2019-06-27T11:02:14.219Z,26.83
2019-06-27T11:07:19.521Z,27.34
2019-06-27T11:12:24.740Z,27.61
2019-06-27T11:17:29.856Z,27.25
2019-06-27T11:22:35.219Z,28.04
2019-06-27T11:27:40.500Z,27.38
2019-06-27T11:32:45.648Z,27.99
2019-06-27T11:37:50.840Z,27.49
2019-06-27T11:42:56.755Z,27.40
2019-06-27T11:48:01.917Z,27.77
2019-06-27T11:53:07.205Z,27.37
2019-06-27T11:58:13.037Z,27.30
2019-06-27T12:03:18.341Z,27.72
2019-06-27T12:08:23.566Z,26.95
2019-06-27T12:13:28.788Z,27.43
2019-06-27T12:18:34.012Z,27.89
2019-06-27T12:23:39.695Z,27.69
2019-06-27T12:28:46.685Z,27.99
2019-06-27T12:34:06.357Z,27.64
2019-06-27T12:39:22.129Z,27.55
2019-06-27T12:44:27.365Z,28.49
2019-06-27T12:49:56.562Z,28.35
2019-06-27T12:54:40.535Z,28.13
2019-06-27T12:59:47.608Z,28.20
2019-06-27T13:04:53.189Z,27.92
2019-06-27T13:09:59.992Z,28.51
2019-06-27T13:15:06.155Z,28.64
2019-06-27T13:20:11.751Z,28.13
2019-06-27T13:25:16.990Z,28.72
2019-06-27T13:30:22.388Z,28.41
2019-06-27T13:35:28.256Z,29.00
2019-06-27T13:40:33.942Z,28.77
2019-06-27T13:45:39.121Z,28.61
2019-06-27T13:50:44.270Z,28.36
2019-06-27T13:55:49.738Z,28.67
2019-06-27T14:00:55.045Z,28.76
2019-06-27T14:06:00.368Z,28.62
2019-06-27T14:11:07.538Z,28.49
2019-06-27T14:16:12.886Z,28.27
2019-06-27T14:21:18.172Z,27.99
2019-06-27T14:26:23.476Z,28.64
2019-06-27T14:31:29.846Z,28.87
2019-06-27T14:36:35.195Z,28.79
2019-06-27T14:41:40.370Z,28.80
2019-06-27T14:46:45.623Z,28.44
2019-06-27T14:51:50.787Z,28.66
2019-06-27T14:56:56.684Z,28.48
2019-06-27T15:02:01.854Z,28.01
2019-06-27T15:07:07.122Z,28.20
2019-06-27T15:12:12.455Z,27.68
2019-06-27T15:17:17.750Z,27.62
2019-06-27T15:22:22.996Z,28.21
2019-06-27T15:27:28.364Z,28.24
2019-06-27T15:32:33.588Z,28.24
2019-06-27T15:37:38.785Z,28.15
2019-06-27T15:42:43.919Z,28.27
2019-06-27T15:47:49.183Z,27.67
2019-06-27T15:52:54.435Z,27.93
2019-06-27T15:58:00.250Z,28.06
2019-06-27T16:03:05.943Z,27.99
2019-06-27T16:08:11.422Z,27.94
2019-06-27T16:13:16.975Z,27.86
2019-06-27T16:18:22.257Z,27.96
2019-06-27T16:23:27.537Z,27.65
2019-06-27T16:28:32.892Z,27.93
2019-06-27T16:33:38.062Z,28.20
2019-06-27T16:38:43.307Z,27.98
2019-06-27T16:43:48.409Z,27.33
2019-06-27T16:48:53.668Z,27.81
2019-06-27T16:54:01.114Z,27.79
2019-06-27T16:59:06.788Z,27.46
2019-06-27T17:04:13.379Z,27.44
2019-06-27T17:09:19.842Z,27.34
2019-06-27T17:14:24.995Z,27.18
2019-06-27T17:19:30.340Z,27.38
2019-06-27T17:24:36.867Z,27.61
2019-06-27T17:29:42.040Z,27.19
2019-06-27T17:34:47.241Z,27.16
2019-06-27T17:39:52.520Z,27.10
2019-06-27T17:44:59.773Z,27.08
2019-06-27T17:50:05.624Z,26.95
2019-06-27T17:55:12.345Z,27.00
2019-06-27T18:00:27.518Z,26.72
2019-06-27T18:05:33.237Z,26.33
2019-06-27T18:10:41.757Z,26.44
2019-06-27T18:15:49.021Z,26.21
2019-06-27T18:20:54.808Z,25.83
2019-06-27T18:26:00.066Z,25.96
2019-06-27T18:31:06.667Z,25.75
2019-06-27T18:36:11.972Z,25.58
2019-06-27T18:41:18.306Z,25.63
2019-06-27T18:46:23.532Z,25.44
2019-06-27T18:51:31.593Z,25.09
2019-06-27T18:56:38.036Z,25.10
2019-06-27T19:01:43.927Z,24.98
2019-06-27T19:06:49.624Z,25.06
2019-06-27T19:11:54.978Z,24.61
2019-06-27T19:17:00.258Z,24.41
2019-06-27T19:22:24.516Z,24.43
2019-06-27T19:27:30.178Z,24.15
2019-06-27T19:32:36.922Z,24.00
2019-06-27T19:37:42.338Z,23.78
2019-06-27T19:42:47.580Z,23.78
2019-06-27T19:47:53.069Z,23.62
2019-06-27T19:53:00.887Z,23.71
2019-06-27T19:58:06.091Z,23.58
2019-06-27T20:03:11.702Z,23.13
2019-06-27T20:08:19.690Z,23.13
2019-06-27T20:13:23.987Z,23.19
2019-06-27T20:18:29.221Z,23.05
2019-06-27T20:23:34.509Z,22.90
2019-06-27T20:28:39.766Z,22.74
2019-06-27T20:33:45.118Z,22.53
2019-06-27T20:38:51.515Z,22.66
2019-06-27T20:43:58.205Z,22.62
2019-06-27T20:49:03.885Z,22.51
2019-06-27T20:54:12.161Z,22.50
2019-06-27T20:59:16.349Z,21.95
2019-06-27T21:04:21.763Z,22.30
2019-06-27T21:09:27.380Z,21.94
2019-06-27T21:14:32.747Z,21.57
2019-06-27T21:19:38.023Z,21.95
2019-06-27T21:24:43.316Z,21.70
2019-06-27T21:29:48.434Z,21.64
2019-06-27T21:34:53.699Z,21.67
2019-06-27T21:39:58.852Z,21.72
2019-06-27T21:45:04.250Z,21.56
2019-06-27T21:50:09.754Z,21.21
2019-06-27T21:55:15.270Z,21.41
2019-06-27T22:00:21.022Z,20.97
2019-06-27T22:05:28.672Z,21.01
2019-06-27T22:10:34.107Z,21.05
2019-06-27T22:15:40.324Z,21.00
2019-06-27T22:20:46.682Z,21.02
2019-06-27T22:25:55.210Z,20.59
2019-06-27T22:31:00.395Z,20.54
2019-06-27T22:36:05.944Z,20.35
2019-06-27T22:41:28.928Z,20.29
2019-06-27T22:46:51.928Z,20.55
2019-06-27T22:52:14.777Z,20.30
2019-06-27T22:57:20.420Z,19.95
2019-06-27T23:02:25.811Z,19.97
2019-06-27T23:07:31.262Z,19.93
2019-06-27T23:12:36.629Z,19.88
2019-06-27T23:17:42.027Z,19.77
2019-06-27T23:22:47.274Z,19.86
2019-06-27T23:27:52.656Z,19.60
2019-06-27T23:32:57.828Z,19.58
2019-06-27T23:38:03.069Z,19.27
2019-06-27T23:43:08.554Z,19.27
2019-06-27T23:48:13.814Z,19.40
2019-06-27T23:53:18.994Z,18.94
2019-06-27T23:58:24.365Z,18.94
